Aviation Digital Data Service (ADDS)

Output produced by TAFs form (2124 UTC 24 July 2014)
found at http://www.aviationweather.gov/adds/tafs/
 
KGFL 241732Z 2418/2518 07008KT P6SM SCT050 
     FM250200 VRB03KT P6SM SKC 
     FM250900 00000KT 2SM BR SCT002 
     FM251300 18006KT P6SM SCT035